Time;durP1;ratioP1;P1;durP2;ratioP2;P2;SDS_P1;SDS_P2;PMS_P1;PMS_P2;Temp;Humidity;BMP_temperature;BMP_pressure;BME280_temperature;BME280_humidity;BME280_pressure;Samples;Min_cycle;Max_cycle;Signal;HPM_P1;HPM_P2
2023/09/17 00:00:47;;;;;;;31.38;28.65;;;;;;;;;;5061958;28;20492;-82
2023/09/17 00:03:13;;;;;;;32.67;29.77;;;;;;;;;;5078655;28;20131;-83
2023/09/17 00:05:39;;;;;;;32.72;29.90;;;;;;;;;;5078003;28;20057;-82
2023/09/17 00:08:05;;;;;;;32.58;29.98;;;;;;;;;;5061812;28;20056;-82
2023/09/17 00:10:31;;;;;;;31.77;29.13;;;;;;;;;;5078490;28;20083;-82
2023/09/17 00:12:57;;;;;;;31.23;28.73;;;;;;;;;;5078373;28;20270;-82
2023/09/17 00:15:27;;;;;;;33.90;31.00;;;;;;;;;;5061999;28;20047;-82
2023/09/17 00:17:54;;;;;;;31.88;29.08;;;;;;;;;;5078430;28;20036;-82
2023/09/17 00:20:20;;;;;;;29.80;27.27;;;;;;;;;;5061723;28;20126;-82
2023/09/17 00:22:46;;;;;;;29.90;27.50;;;;;;;;;;5077828;28;20051;-82
2023/09/17 00:25:12;;;;;;;32.92;30.08;;;;;;;;;;5061678;28;20399;-82
2023/09/17 00:27:41;;;;;;;31.73;29.00;;;;;;;;;;5078471;28;20453;-82
2023/09/17 00:30:09;;;;;;;30.58;28.00;;;;;;;;;;5077929;28;20058;-82
2023/09/17 00:32:35;;;;;;;31.05;28.60;;;;;;;;;;5077757;28;20055;-82
2023/09/17 00:35:01;;;;;;;30.00;27.48;;;;;;;;;;5060922;28;20466;-82
2023/09/17 00:37:27;;;;;;;33.70;30.75;;;;;;;;;;5061077;28;20043;-82
2023/09/17 00:39:53;;;;;;;33.03;30.13;;;;;;;;;;5077953;28;20051;-83
2023/09/17 00:42:19;;;;;;;29.35;27.05;;;;;;;;;;5077959;28;20062;-82
2023/09/17 00:44:45;;;;;;;31.17;28.45;;;;;;;;;;5077842;28;20048;-82
2023/09/17 00:47:12;;;;;;;29.48;26.95;;;;;;;;;;5078019;28;20064;-83
2023/09/17 00:49:39;;;;;;;30.70;28.10;;;;;;;;;;5061037;28;20061;-82
2023/09/17 00:52:10;;;;;;;29.80;27.38;;;;;;;;;;5061231;28;20040;-82
2023/09/17 00:54:36;;;;;;;32.08;29.38;;;;;;;;;;5060798;28;20098;-82
2023/09/17 00:57:03;;;;;;;32.85;30.15;;;;;;;;;;5095662;28;20480;-82
2023/09/17 00:59:30;;;;;;;29.90;27.38;;;;;;;;;;5077784;28;20105;-82
2023/09/17 01:01:56;;;;;;;31.80;29.02;;;;;;;;;;5077999;28;20051;-82
2023/09/17 01:04:23;;;;;;;31.17;28.45;;;;;;;;;;5094165;28;20514;-82
2023/09/17 01:06:52;;;;;;;31.92;29.23;;;;;;;;;;5077614;28;20094;-82
2023/09/17 01:09:18;;;;;;;31.85;29.17;;;;;;;;;;5076972;28;20048;-82
2023/09/17 01:11:45;;;;;;;31.95;29.20;;;;;;;;;;5077142;28;20381;-82
2023/09/17 01:14:14;;;;;;;31.23;28.45;;;;;;;;;;5061383;28;20143;-82
2023/09/17 01:16:41;;;;;;;31.38;28.77;;;;;;;;;;5076525;28;20484;-82
2023/09/17 01:19:09;;;;;;;28.92;26.33;;;;;;;;;;5077091;28;20043;-82
2023/09/17 01:21:38;;;;;;;29.05;26.52;;;;;;;;;;5077471;28;20048;-82
2023/09/17 01:24:23;;;;;;;29.15;26.75;;;;;;;;;;5076935;28;20092;-82
2023/09/17 01:27:09;;;;;;;28.88;26.40;;;;;;;;;;5077200;28;20051;-82
2023/09/17 01:29:37;;;;;;;28.40;26.10;;;;;;;;;;5077813;28;20388;-82
2023/09/17 01:32:04;;;;;;;27.17;24.85;;;;;;;;;;5077251;28;20393;-83
2023/09/17 01:34:31;;;;;;;28.17;25.88;;;;;;;;;;5076479;28;20709;-82
2023/09/17 01:36:57;;;;;;;30.08;27.50;;;;;;;;;;5060626;28;20044;-82
2023/09/17 01:39:27;;;;;;;25.85;23.58;;;;;;;;;;5077141;28;20048;-82
2023/09/17 01:41:53;;;;;;;29.17;26.83;;;;;;;;;;5076906;28;20399;-82
2023/09/17 01:44:20;;;;;;;27.63;25.33;;;;;;;;;;5076855;28;20538;-83
2023/09/17 01:46:48;;;;;;;28.00;25.80;;;;;;;;;;5076744;28;20040;-82
2023/09/17 01:49:15;;;;;;;26.17;24.17;;;;;;;;;;5075360;28;20102;-82
2023/09/17 01:51:43;;;;;;;27.00;24.73;;;;;;;;;;5041080;28;20120;-82
2023/09/17 01:54:09;;;;;;;26.75;24.60;;;;;;;;;;5056932;28;20131;-82
2023/09/17 01:56:37;;;;;;;27.75;25.55;;;;;;;;;;5041085;28;20063;-82
2023/09/17 01:59:06;;;;;;;24.85;22.75;;;;;;;;;;5057450;28;20427;-82
2023/09/17 02:01:32;;;;;;;25.10;23.02;;;;;;;;;;5057314;28;20441;-82
2023/09/17 02:03:58;;;;;;;25.70;23.65;;;;;;;;;;5055369;28;20072;-82
2023/09/17 02:06:25;;;;;;;24.75;22.73;;;;;;;;;;5055972;28;20135;-82
2023/09/17 02:08:51;;;;;;;24.23;22.05;;;;;;;;;;5057032;28;20053;-82
2023/09/17 02:11:17;;;;;;;24.55;22.55;;;;;;;;;;5057190;28;20405;-82
2023/09/17 02:13:43;;;;;;;22.40;20.45;;;;;;;;;;5040397;28;20045;-82
2023/09/17 02:16:09;;;;;;;22.63;20.80;;;;;;;;;;5058572;28;20074;-82
2023/09/17 02:18:35;;;;;;;21.00;19.40;;;;;;;;;;5043967;28;20063;-82
2023/09/17 02:21:01;;;;;;;22.40;20.40;;;;;;;;;;5060336;28;20128;-84
2023/09/17 02:23:28;;;;;;;21.92;20.17;;;;;;;;;;5077851;28;20476;-82
2023/09/17 02:25:54;;;;;;;20.90;19.23;;;;;;;;;;5060359;28;20113;-82
2023/09/17 02:28:20;;;;;;;22.00;20.00;;;;;;;;;;5044137;28;20063;-82
2023/09/17 02:30:47;;;;;;;23.85;21.85;;;;;;;;;;5060353;28;20045;-82
2023/09/17 02:33:13;;;;;;;22.50;20.60;;;;;;;;;;5060575;28;20144;-82
2023/09/17 02:35:39;;;;;;;22.65;20.63;;;;;;;;;;5043321;28;20098;-82
2023/09/17 02:38:05;;;;;;;23.98;21.92;;;;;;;;;;5059995;28;20041;-82
2023/09/17 02:40:31;;;;;;;24.50;22.38;;;;;;;;;;5077874;28;20052;-82
2023/09/17 02:42:57;;;;;;;22.00;20.13;;;;;;;;;;5043398;28;20041;-82
2023/09/17 02:45:24;;;;;;;24.23;21.88;;;;;;;;;;5060151;28;20048;-82
2023/09/17 02:47:51;;;;;;;23.13;21.17;;;;;;;;;;5060009;28;20373;-82
2023/09/17 02:50:17;;;;;;;22.40;20.50;;;;;;;;;;5069232;28;20063;-79
2023/09/17 02:52:43;;;;;;;23.67;21.73;;;;;;;;;;5079690;28;20138;-78
2023/09/17 02:55:09;;;;;;;23.45;21.60;;;;;;;;;;5096923;28;20043;-79
2023/09/17 02:57:35;;;;;;;23.42;21.35;;;;;;;;;;5078748;28;20040;-78
2023/09/17 03:00:04;;;;;;;23.15;21.05;;;;;;;;;;5078782;28;20051;-76
2023/09/17 03:02:31;;;;;;;23.13;21.13;;;;;;;;;;5078513;28;20048;-76
2023/09/17 03:04:58;;;;;;;23.00;20.80;;;;;;;;;;5078270;28;20052;-76
2023/09/17 03:07:25;;;;;;;22.35;20.60;;;;;;;;;;5078762;28;20059;-76
2023/09/17 03:09:51;;;;;;;22.70;20.73;;;;;;;;;;5062132;28;20094;-76
2023/09/17 03:12:18;;;;;;;23.40;21.35;;;;;;;;;;5096526;28;20048;-76
2023/09/17 03:14:44;;;;;;;22.20;20.35;;;;;;;;;;5096243;28;20131;-76
2023/09/17 03:17:10;;;;;;;24.15;21.90;;;;;;;;;;5096970;28;20111;-76
2023/09/17 03:19:36;;;;;;;23.52;21.63;;;;;;;;;;5078251;28;20134;-76
2023/09/17 03:22:02;;;;;;;24.30;22.30;;;;;;;;;;5078285;28;20441;-76
2023/09/17 03:24:28;;;;;;;27.67;25.27;;;;;;;;;;5060850;28;20044;-76
2023/09/17 03:26:55;;;;;;;26.88;24.42;;;;;;;;;;5095814;28;20036;-76
2023/09/17 03:29:24;;;;;;;26.15;23.65;;;;;;;;;;5061426;28;20060;-76
2023/09/17 03:31:50;;;;;;;28.20;25.73;;;;;;;;;;5095908;28;20126;-76
2023/09/17 03:34:16;;;;;;;27.88;25.40;;;;;;;;;;5096368;28;20047;-76
2023/09/17 03:36:42;;;;;;;31.95;29.00;;;;;;;;;;5077665;28;20484;-76
2023/09/17 03:39:12;;;;;;;30.98;28.30;;;;;;;;;;5095668;28;20044;-76
2023/09/17 03:41:40;;;;;;;29.90;27.05;;;;;;;;;;5077701;28;20062;-76
2023/09/17 03:44:07;;;;;;;31.73;28.92;;;;;;;;;;5095528;28;20048;-76
2023/09/17 03:46:34;;;;;;;31.40;28.63;;;;;;;;;;5095553;28;20051;-76
2023/09/17 03:49:00;;;;;;;34.10;31.10;;;;;;;;;;5077686;28;20047;-76
2023/09/17 03:51:28;;;;;;;33.58;30.50;;;;;;;;;;5081294;28;20411;-76
2023/09/17 03:53:54;;;;;;;39.30;35.90;;;;;;;;;;5058150;28;20040;-76
2023/09/17 03:56:21;;;;;;;39.75;36.15;;;;;;;;;;5075217;28;20056;-76
2023/09/17 03:58:48;;;;;;;40.85;37.22;;;;;;;;;;5041627;28;20423;-76
2023/09/17 04:01:14;;;;;;;40.83;36.95;;;;;;;;;;5075054;28;20110;-76
2023/09/17 04:03:40;;;;;;;40.55;36.80;;;;;;;;;;5057091;28;20051;-76
2023/09/17 04:06:07;;;;;;;42.45;38.63;;;;;;;;;;5056880;28;20049;-76
2023/09/17 04:08:33;;;;;;;40.60;36.95;;;;;;;;;;5075208;28;20048;-76
2023/09/17 04:10:59;;;;;;;44.53;40.63;;;;;;;;;;5058077;28;20131;-76
2023/09/17 04:13:27;;;;;;;43.42;39.30;;;;;;;;;;5057030;28;20055;-76
2023/09/17 04:15:54;;;;;;;44.22;40.33;;;;;;;;;;5056770;28;20380;-76
2023/09/17 04:18:20;;;;;;;43.78;39.72;;;;;;;;;;5074694;28;20059;-76
2023/09/17 04:20:47;;;;;;;43.45;39.25;;;;;;;;;;5057865;28;20037;-76
2023/09/17 04:23:14;;;;;;;45.22;41.13;;;;;;;;;;5040197;28;20080;-76
2023/09/17 04:25:40;;;;;;;45.58;41.28;;;;;;;;;;5056951;28;20393;-76
2023/09/17 04:28:06;;;;;;;44.10;40.10;;;;;;;;;;5056878;28;20053;-76
2023/09/17 04:30:32;;;;;;;45.63;41.50;;;;;;;;;;5074514;28;20049;-76
2023/09/17 04:32:58;;;;;;;46.10;41.70;;;;;;;;;;5040935;28;20055;-77
2023/09/17 04:35:24;;;;;;;43.17;39.30;;;;;;;;;;5074183;28;20051;-77
2023/09/17 04:37:51;;;;;;;45.33;41.20;;;;;;;;;;5073752;28;20044;-76
2023/09/17 04:40:18;;;;;;;46.22;42.05;;;;;;;;;;5056468;28;20064;-76
2023/09/17 04:42:45;;;;;;;42.38;38.33;;;;;;;;;;5039865;28;20105;-76
2023/09/17 04:45:12;;;;;;;47.05;42.25;;;;;;;;;;5074696;28;20052;-77
2023/09/17 04:47:39;;;;;;;43.50;39.50;;;;;;;;;;5056863;28;20080;-76
2023/09/17 04:50:12;;;;;;;44.83;40.25;;;;;;;;;;5075791;28;20067;-77
2023/09/17 04:52:38;;;;;;;45.80;41.50;;;;;;;;;;5074311;28;20149;-76
2023/09/17 04:55:05;;;;;;;49.40;44.75;;;;;;;;;;5056083;28;20048;-77
2023/09/17 04:57:32;;;;;;;48.50;43.95;;;;;;;;;;5074464;28;20048;-77
2023/09/17 04:59:58;;;;;;;49.08;44.50;;;;;;;;;;5056277;28;20165;-77
2023/09/17 05:02:24;;;;;;;50.40;45.63;;;;;;;;;;5056089;28;20047;-77
2023/09/17 05:04:50;;;;;;;48.95;44.55;;;;;;;;;;5056390;28;20481;-77
2023/09/17 05:07:16;;;;;;;53.75;48.75;;;;;;;;;;5073780;28;20040;-77
2023/09/17 05:09:42;;;;;;;55.13;49.58;;;;;;;;;;5073736;28;20131;-77
2023/09/17 05:12:08;;;;;;;50.08;45.67;;;;;;;;;;5073832;28;20048;-77
2023/09/17 05:14:35;;;;;;;53.40;48.22;;;;;;;;;;5055989;28;20057;-77
2023/09/17 05:17:02;;;;;;;54.08;49.08;;;;;;;;;;5055973;28;20053;-77
2023/09/17 05:19:28;;;;;;;55.17;49.92;;;;;;;;;;5039376;28;20049;-76
2023/09/17 05:21:54;;;;;;;51.38;46.70;;;;;;;;;;5073250;28;20488;-76
2023/09/17 05:24:20;;;;;;;51.92;47.10;;;;;;;;;;5074362;28;20127;-76
2023/09/17 05:26:46;;;;;;;53.10;47.85;;;;;;;;;;5073690;28;20048;-76
2023/09/17 05:29:15;;;;;;;50.78;45.70;;;;;;;;;;5055686;28;20131;-76
2023/09/17 05:31:41;;;;;;;54.28;49.08;;;;;;;;;;5073452;28;20052;-76
2023/09/17 05:34:08;;;;;;;53.03;47.85;;;;;;;;;;5073497;28;20040;-76
2023/09/17 05:36:34;;;;;;;52.72;47.53;;;;;;;;;;5055618;28;20044;-76
2023/09/17 05:39:00;;;;;;;58.03;52.47;;;;;;;;;;5073683;28;20048;-76
2023/09/17 05:41:26;;;;;;;59.17;53.20;;;;;;;;;;5055479;28;20110;-76
2023/09/17 05:43:52;;;;;;;57.42;51.70;;;;;;;;;;5073968;28;20044;-76
2023/09/17 05:46:18;;;;;;;59.45;53.58;;;;;;;;;;5073450;28;20052;-76
2023/09/17 05:48:44;;;;;;;59.80;53.83;;;;;;;;;;5054982;28;20442;-76
2023/09/17 05:51:10;;;;;;;63.65;57.05;;;;;;;;;;5066987;28;20088;-76
2023/09/17 05:53:36;;;;;;;63.80;57.58;;;;;;;;;;5080728;28;20055;-76
2023/09/17 05:56:07;;;;;;;60.38;54.65;;;;;;;;;;5097670;28;20084;-76
2023/09/17 05:58:34;;;;;;;64.18;57.55;;;;;;;;;;5079732;28;20040;-76
2023/09/17 06:01:00;;;;;;;59.55;53.88;;;;;;;;;;5080588;28;20052;-76
2023/09/17 06:03:27;;;;;;;70.68;62.38;;;;;;;;;;5079490;28;20123;-76
2023/09/17 06:05:55;;;;;;;61.35;55.40;;;;;;;;;;5097364;28;20048;-76
2023/09/17 06:08:22;;;;;;;60.85;54.92;;;;;;;;;;5098018;28;20059;-77
2023/09/17 06:10:48;;;;;;;62.67;56.20;;;;;;;;;;5079490;28;20044;-77
2023/09/17 06:13:14;;;;;;;64.63;58.33;;;;;;;;;;5079786;28;20048;-77
2023/09/17 06:15:41;;;;;;;63.95;57.75;;;;;;;;;;5097335;28;20048;-77
2023/09/17 06:18:07;;;;;;;62.38;55.88;;;;;;;;;;5079451;28;20084;-77
2023/09/17 06:20:34;;;;;;;63.70;57.35;;;;;;;;;;5080198;28;20048;-78
2023/09/17 06:23:00;;;;;;;63.22;57.03;;;;;;;;;;5079998;28;20067;-78
2023/09/17 06:25:26;;;;;;;64.93;58.60;;;;;;;;;;5097252;28;20083;-78
2023/09/17 06:27:52;;;;;;;66.00;59.45;;;;;;;;;;5080122;28;20051;-78
2023/09/17 06:30:19;;;;;;;73.28;65.75;;;;;;;;;;5079200;28;20133;-78
2023/09/17 06:32:46;;;;;;;68.45;61.75;;;;;;;;;;5079142;28;20060;-78
2023/09/17 06:35:12;;;;;;;72.10;65.07;;;;;;;;;;5079147;28;20048;-78
2023/09/17 06:37:38;;;;;;;70.15;63.15;;;;;;;;;;5079119;28;20066;-78
2023/09/17 06:40:05;;;;;;;70.95;63.83;;;;;;;;;;5079087;28;20455;-78
2023/09/17 06:42:32;;;;;;;71.28;64.20;;;;;;;;;;5096757;28;20135;-77
2023/09/17 06:44:58;;;;;;;72.72;65.60;;;;;;;;;;5078938;28;20093;-78
2023/09/17 06:47:24;;;;;;;68.95;62.33;;;;;;;;;;5079565;28;20079;-78
2023/09/17 06:49:50;;;;;;;76.53;68.78;;;;;;;;;;5096972;28;20388;-78
2023/09/17 06:52:16;;;;;;;72.43;65.20;;;;;;;;;;5081644;28;20063;-77
2023/09/17 06:54:43;;;;;;;72.10;64.82;;;;;;;;;;5059006;28;20056;-77
2023/09/17 06:57:09;;;;;;;77.22;69.43;;;;;;;;;;5059015;28;20497;-77
2023/09/17 06:59:36;;;;;;;76.35;68.63;;;;;;;;;;5076830;28;20403;-77
2023/09/17 07:02:02;;;;;;;79.85;71.88;;;;;;;;;;5057844;28;20055;-77
2023/09/17 07:04:28;;;;;;;83.57;75.07;;;;;;;;;;5076041;28;20041;-78
2023/09/17 07:07:00;;;;;;;88.15;79.28;;;;;;;;;;5075922;28;20569;-78
2023/09/17 07:09:26;;;;;;;85.00;76.43;;;;;;;;;;5077001;28;20101;-78
2023/09/17 07:11:52;;;;;;;87.40;78.55;;;;;;;;;;5058491;28;20124;-78
2023/09/17 07:14:18;;;;;;;79.80;72.30;;;;;;;;;;5041830;28;20061;-77
2023/09/17 07:16:44;;;;;;;80.95;73.15;;;;;;;;;;5075994;28;20090;-78
2023/09/17 07:19:10;;;;;;;86.05;77.57;;;;;;;;;;5075932;28;20053;-78
2023/09/17 07:21:36;;;;;;;80.63;72.78;;;;;;;;;;5058260;28;20059;-79
2023/09/17 07:24:03;;;;;;;82.50;74.25;;;;;;;;;;5075825;28;20127;-77
2023/09/17 07:26:29;;;;;;;77.65;70.15;;;;;;;;;;5059002;28;20084;-77
2023/09/17 07:28:56;;;;;;;78.53;70.95;;;;;;;;;;5058168;28;20425;-78
2023/09/17 07:31:22;;;;;;;77.65;70.05;;;;;;;;;;5076029;28;20393;-77
2023/09/17 07:33:48;;;;;;;76.72;69.22;;;;;;;;;;5075487;28;20582;-78
2023/09/17 07:36:15;;;;;;;79.57;71.68;;;;;;;;;;5057935;28;20472;-78
2023/09/17 07:38:41;;;;;;;73.90;66.70;;;;;;;;;;5057970;28;20415;-78
2023/09/17 07:41:08;;;;;;;76.00;68.65;;;;;;;;;;5057992;28;20048;-78
2023/09/17 07:43:34;;;;;;;72.60;65.40;;;;;;;;;;5075501;28;20044;-78
2023/09/17 07:46:00;;;;;;;67.97;61.42;;;;;;;;;;5057858;28;20422;-78
2023/09/17 07:48:26;;;;;;;67.57;61.05;;;;;;;;;;5058642;28;20048;-78
2023/09/17 07:50:56;;;;;;;69.30;62.80;;;;;;;;;;5075200;28;20067;-78
2023/09/17 07:53:23;;;;;;;68.70;62.22;;;;;;;;;;5058532;28;20090;-78
2023/09/17 07:55:49;;;;;;;68.82;62.33;;;;;;;;;;5075236;28;20546;-78
2023/09/17 07:58:15;;;;;;;66.45;60.25;;;;;;;;;;5057615;28;20048;-79
2023/09/17 08:00:45;;;;;;;66.05;59.65;;;;;;;;;;5057551;28;20049;-78
2023/09/17 08:03:11;;;;;;;63.92;57.75;;;;;;;;;;5057409;28;20052;-78
2023/09/17 08:05:38;;;;;;;64.25;58.33;;;;;;;;;;5041658;28;20051;-78
2023/09/17 08:08:07;;;;;;;61.55;55.95;;;;;;;;;;5057449;28;20428;-78
2023/09/17 08:10:33;;;;;;;62.72;56.88;;;;;;;;;;5057051;28;20052;-78
2023/09/17 08:13:00;;;;;;;59.97;54.65;;;;;;;;;;5074037;28;20049;-78
2023/09/17 08:15:27;;;;;;;60.22;54.67;;;;;;;;;;5057464;28;20473;-78
2023/09/17 08:17:53;;;;;;;59.92;54.30;;;;;;;;;;5057192;28;20056;-78
2023/09/17 08:20:20;;;;;;;61.08;55.30;;;;;;;;;;5074726;28;20132;-78
2023/09/17 08:22:46;;;;;;;61.17;55.70;;;;;;;;;;5074704;28;20484;-77
2023/09/17 08:25:12;;;;;;;60.83;55.15;;;;;;;;;;5057030;28;20048;-78
2023/09/17 08:27:40;;;;;;;59.63;54.17;;;;;;;;;;5075466;28;20044;-78
2023/09/17 08:30:11;;;;;;;59.83;54.28;;;;;;;;;;5074586;28;20189;-78
2023/09/17 08:32:41;;;;;;;58.03;52.58;;;;;;;;;;5074581;28;20468;-78
2023/09/17 08:35:07;;;;;;;57.60;52.47;;;;;;;;;;5056880;28;20044;-78
2023/09/17 08:37:34;;;;;;;58.58;53.38;;;;;;;;;;5056899;28;20044;-78
2023/09/17 08:40:00;;;;;;;59.83;54.22;;;;;;;;;;5057012;28;20049;-78
2023/09/17 08:42:27;;;;;;;54.50;49.85;;;;;;;;;;5074310;28;20056;-78
2023/09/17 08:44:56;;;;;;;56.47;51.47;;;;;;;;;;5024156;28;20473;-78
2023/09/17 08:47:22;;;;;;;54.72;49.80;;;;;;;;;;5074315;28;20059;-78
2023/09/17 08:49:48;;;;;;;53.08;48.30;;;;;;;;;;5074244;28;20445;-78
2023/09/17 08:52:16;;;;;;;51.03;46.42;;;;;;;;;;5070667;28;20048;-78
2023/09/17 08:54:42;;;;;;;54.00;49.05;;;;;;;;;;5076897;28;20080;-78
2023/09/17 08:57:09;;;;;;;53.10;48.35;;;;;;;;;;5094371;28;20091;-78
2023/09/17 08:59:37;;;;;;;50.05;45.70;;;;;;;;;;5076118;28;20047;-77
2023/09/17 09:02:07;;;;;;;49.55;45.42;;;;;;;;;;5076445;28;20372;-78
2023/09/17 09:04:34;;;;;;;51.28;46.58;;;;;;;;;;5060228;28;20047;-77
2023/09/17 09:07:01;;;;;;;49.85;45.38;;;;;;;;;;5094183;28;20155;-78
2023/09/17 09:09:28;;;;;;;48.60;44.40;;;;;;;;;;5076187;28;20047;-78
2023/09/17 09:11:54;;;;;;;48.97;44.63;;;;;;;;;;5094898;28;20364;-78
2023/09/17 09:14:20;;;;;;;51.10;46.38;;;;;;;;;;5094155;28;20051;-78
2023/09/17 09:16:46;;;;;;;49.85;45.45;;;;;;;;;;5076203;28;20097;-78
2023/09/17 09:19:13;;;;;;;50.75;46.15;;;;;;;;;;5075951;28;20480;-78
2023/09/17 09:21:39;;;;;;;51.97;47.03;;;;;;;;;;5093943;28;20048;-77
2023/09/17 09:24:05;;;;;;;48.60;44.20;;;;;;;;;;5093916;28;20376;-77
2023/09/17 09:26:38;;;;;;;49.78;45.35;;;;;;;;;;5076194;28;20087;-78
2023/09/17 09:29:08;;;;;;;57.05;51.70;;;;;;;;;;5076139;28;20097;-78
2023/09/17 09:31:35;;;;;;;55.03;50.00;;;;;;;;;;5076069;28;20055;-79
2023/09/17 09:34:02;;;;;;;53.95;48.90;;;;;;;;;;5059635;28;20044;-77
2023/09/17 09:36:29;;;;;;;39.17;34.78;;;;;;;;;;5094301;28;20080;-75
2023/09/17 09:38:58;;;;;;;53.17;48.25;;;;;;;;;;5094075;28;20392;-77
2023/09/17 09:41:26;;;;;;;53.92;48.97;;;;;;;;;;5093754;28;20047;-75
2023/09/17 09:43:56;;;;;;;51.22;46.28;;;;;;;;;;5093629;28;20040;-74
2023/09/17 09:46:24;;;;;;;53.95;48.88;;;;;;;;;;5094615;28;20052;-74
2023/09/17 09:48:51;;;;;;;54.28;48.97;;;;;;;;;;5093722;28;20044;-75
2023/09/17 09:51:18;;;;;;;51.97;46.90;;;;;;;;;;5087043;28;20057;-78
2023/09/17 09:53:45;;;;;;;52.70;47.80;;;;;;;;;;5074189;28;20052;-79
2023/09/17 09:56:12;;;;;;;56.35;50.83;;;;;;;;;;5056587;28;20435;-79
2023/09/17 09:58:39;;;;;;;60.60;54.75;;;;;;;;;;5074023;28;20048;-80
2023/09/17 10:01:05;;;;;;;51.63;46.72;;;;;;;;;;5055778;28;20048;-80
2023/09/17 10:03:32;;;;;;;52.83;48.08;;;;;;;;;;5038892;28;20105;-80
2023/09/17 10:06:07;;;;;;;52.78;47.80;;;;;;;;;;5055618;28;20044;-80
2023/09/17 10:08:39;;;;;;;53.80;48.55;;;;;;;;;;5039002;28;20198;-79
2023/09/17 10:11:05;;;;;;;51.13;46.47;;;;;;;;;;5073297;28;20113;-79
2023/09/17 10:13:32;;;;;;;51.08;46.20;;;;;;;;;;5056380;28;20052;-79
2023/09/17 10:15:59;;;;;;;49.35;44.67;;;;;;;;;;5055921;28;20144;-80
2023/09/17 10:18:26;;;;;;;51.80;46.80;;;;;;;;;;5039075;28;20054;-79
2023/09/17 10:20:52;;;;;;;53.22;48.08;;;;;;;;;;5055838;28;20051;-79
2023/09/17 10:23:20;;;;;;;51.40;46.38;;;;;;;;;;5055399;28;20040;-78
2023/09/17 10:25:48;;;;;;;50.53;45.67;;;;;;;;;;5073173;28;20049;-79
2023/09/17 10:28:14;;;;;;;54.22;49.08;;;;;;;;;;5073140;28;20051;-80
2023/09/17 10:30:41;;;;;;;51.42;46.47;;;;;;;;;;5054882;28;20049;-80
2023/09/17 10:33:09;;;;;;;54.17;49.15;;;;;;;;;;5073513;28;20098;-80
2023/09/17 10:35:35;;;;;;;58.78;52.65;;;;;;;;;;5054576;28;20448;-74
2023/09/17 10:38:03;;;;;;;58.42;52.58;;;;;;;;;;5075755;28;20052;-75
2023/09/17 10:40:30;;;;;;;59.53;53.53;;;;;;;;;;5076429;28;20045;-78
2023/09/17 10:42:59;;;;;;;58.15;52.50;;;;;;;;;;5076396;28;20040;-78
2023/09/17 10:45:26;;;;;;;60.53;54.55;;;;;;;;;;5059667;28;20045;-79
2023/09/17 10:47:53;;;;;;;59.33;53.42;;;;;;;;;;5076486;28;20051;-79
2023/09/17 10:50:19;;;;;;;56.80;51.53;;;;;;;;;;5058903;28;20056;-81
2023/09/17 10:52:45;;;;;;;62.03;55.90;;;;;;;;;;5077397;28;20044;-80
2023/09/17 10:55:12;;;;;;;56.88;51.42;;;;;;;;;;5079838;28;20052;-80
2023/09/17 10:57:40;;;;;;;53.45;48.33;;;;;;;;;;5096792;28;20047;-80
2023/09/17 11:00:17;;;;;;;51.72;46.75;;;;;;;;;;5078859;28;20032;-80
2023/09/17 11:02:48;;;;;;;54.33;49.47;;;;;;;;;;5096633;28;20079;-79
2023/09/17 11:05:17;;;;;;;52.97;48.05;;;;;;;;;;5097122;28;20041;-79
2023/09/17 11:07:43;;;;;;;49.55;45.15;;;;;;;;;;5096514;28;20040;-79
2023/09/17 11:10:14;;;;;;;52.90;47.92;;;;;;;;;;5079545;28;20039;-79
2023/09/17 11:12:40;;;;;;;47.03;42.88;;;;;;;;;;5062286;28;20047;-80
2023/09/17 11:15:07;;;;;;;52.10;47.08;;;;;;;;;;5096679;28;20040;-79
2023/09/17 11:17:34;;;;;;;52.47;47.65;;;;;;;;;;5078508;28;20059;-80
2023/09/17 11:20:00;;;;;;;47.65;43.40;;;;;;;;;;5078134;28;20056;-80
2023/09/17 11:22:35;;;;;;;47.83;43.22;;;;;;;;;;5061822;28;20048;-79
2023/09/17 11:25:03;;;;;;;47.58;43.22;;;;;;;;;;5078736;28;20055;-79
2023/09/17 11:27:47;;;;;;;48.72;44.40;;;;;;;;;;5079176;28;20044;-80
2023/09/17 11:30:17;;;;;;;46.08;41.80;;;;;;;;;;5078265;28;20047;-80
2023/09/17 11:32:53;;;;;;;47.78;43.35;;;;;;;;;;5078543;28;20040;-80
2023/09/17 11:35:22;;;;;;;47.35;42.97;;;;;;;;;;5078969;28;20036;-80
2023/09/17 11:37:48;;;;;;;48.08;43.80;;;;;;;;;;5078116;28;20043;-79
2023/09/17 11:40:15;;;;;;;50.80;46.25;;;;;;;;;;5078123;28;20062;-79
2023/09/17 11:42:42;;;;;;;45.67;41.50;;;;;;;;;;5077731;28;20044;-80
2023/09/17 11:45:08;;;;;;;46.88;42.63;;;;;;;;;;5078033;28;20044;-80
2023/09/17 11:47:38;;;;;;;47.22;43.00;;;;;;;;;;5078123;28;20044;-80
2023/09/17 11:50:05;;;;;;;49.92;45.38;;;;;;;;;;5062050;28;20040;-80
2023/09/17 11:52:33;;;;;;;47.15;42.83;;;;;;;;;;5077108;28;20134;-80
2023/09/17 11:55:11;;;;;;;48.63;44.28;;;;;;;;;;5095724;28;20055;-80
2023/09/17 11:57:38;;;;;;;47.55;43.33;;;;;;;;;;5096490;28;20148;-79
2023/09/17 12:00:11;;;;;;;43.67;39.70;;;;;;;;;;5061087;28;20079;-79
2023/09/17 12:02:38;;;;;;;42.28;38.55;;;;;;;;;;5077997;28;20052;-79
2023/09/17 12:05:04;;;;;;;44.40;40.30;;;;;;;;;;5078269;28;20050;-79
2023/09/17 12:07:33;;;;;;;42.72;38.83;;;;;;;;;;5078273;28;20044;-79
2023/09/17 12:10:04;;;;;;;42.80;39.00;;;;;;;;;;5077390;28;20563;-80
2023/09/17 12:12:33;;;;;;;45.22;41.20;;;;;;;;;;5095321;28;20123;-79
2023/09/17 12:14:59;;;;;;;39.90;36.40;;;;;;;;;;5060861;28;20048;-79
2023/09/17 12:17:25;;;;;;;42.50;38.80;;;;;;;;;;5077502;28;20043;-80
2023/09/17 12:19:59;;;;;;;42.55;38.83;;;;;;;;;;5095035;28;20055;-79
2023/09/17 12:22:25;;;;;;;41.20;37.50;;;;;;;;;;5077520;28;20051;-79
2023/09/17 12:25:05;;;;;;;40.08;36.47;;;;;;;;;;5060980;28;20310;-79
2023/09/17 12:29:58;;;;;;;45.00;41.10;;;;;;;;;;5094875;28;20120;-79
2023/09/17 12:32:25;;;;;;;47.50;43.03;;;;;;;;;;5076922;28;20044;-79
2023/09/17 12:34:52;;;;;;;46.63;42.30;;;;;;;;;;5094689;28;20070;-79
2023/09/17 12:37:19;;;;;;;43.75;39.95;;;;;;;;;;5060285;28;20048;-79
2023/09/17 12:39:46;;;;;;;45.75;41.67;;;;;;;;;;5076809;28;20499;-78
2023/09/17 12:42:13;;;;;;;45.22;41.15;;;;;;;;;;5076522;28;20048;-79
2023/09/17 12:44:39;;;;;;;45.22;41.42;;;;;;;;;;5077267;28;20048;-78
2023/09/17 12:47:07;;;;;;;46.00;41.78;;;;;;;;;;5076707;28;20126;-79
2023/09/17 12:49:33;;;;;;;45.85;42.00;;;;;;;;;;5094547;28;20062;-79
2023/09/17 12:52:03;;;;;;;46.50;42.33;;;;;;;;;;5084189;28;20106;-79
2023/09/17 12:54:29;;;;;;;45.08;41.28;;;;;;;;;;5056202;28;20048;-79
2023/09/17 12:56:59;;;;;;;44.15;40.33;;;;;;;;;;5056463;28;20044;-78
2023/09/17 12:59:37;;;;;;;41.88;38.28;;;;;;;;;;5073219;28;20489;-79
2023/09/17 13:02:04;;;;;;;40.50;36.92;;;;;;;;;;5040146;28;20389;-79
2023/09/17 13:04:34;;;;;;;41.47;37.10;;;;;;;;;;5056025;28;20132;-78
2023/09/17 13:07:01;;;;;;;37.90;34.78;;;;;;;;;;5056228;28;20040;-79
2023/09/17 13:09:27;;;;;;;36.30;33.25;;;;;;;;;;5073928;28;20143;-79
2023/09/17 13:11:56;;;;;;;37.22;34.17;;;;;;;;;;5073852;28;20048;-79
2023/09/17 13:14:22;;;;;;;36.45;33.47;;;;;;;;;;5056226;28;20052;-79
2023/09/17 13:16:49;;;;;;;35.45;32.55;;;;;;;;;;5056003;28;20048;-80
2023/09/17 13:19:15;;;;;;;36.55;33.63;;;;;;;;;;5056147;28;20086;-79
2023/09/17 13:21:41;;;;;;;35.72;32.80;;;;;;;;;;5056418;28;20044;-79
2023/09/17 13:24:09;;;;;;;35.83;32.88;;;;;;;;;;5055889;28;20043;-78
2023/09/17 13:26:35;;;;;;;36.42;33.40;;;;;;;;;;5056034;28;20131;-79
2023/09/17 13:29:03;;;;;;;35.47;32.67;;;;;;;;;;5055987;28;20052;-79
2023/09/17 13:31:29;;;;;;;37.55;34.55;;;;;;;;;;5056821;28;20048;-79
2023/09/17 13:33:56;;;;;;;39.13;35.60;;;;;;;;;;5055931;28;20044;-79
2023/09/17 13:36:22;;;;;;;37.10;34.00;;;;;;;;;;5055495;28;20207;-79
2023/09/17 13:38:48;;;;;;;38.30;35.20;;;;;;;;;;5055736;28;20049;-79
2023/09/17 13:41:18;;;;;;;36.58;33.58;;;;;;;;;;5056143;28;20044;-80
2023/09/17 13:43:45;;;;;;;36.80;33.67;;;;;;;;;;5055668;28;20052;-79
2023/09/17 13:46:17;;;;;;;36.58;33.67;;;;;;;;;;5074110;28;20135;-79
2023/09/17 13:48:44;;;;;;;37.72;34.38;;;;;;;;;;5039262;28;20044;-79
2023/09/17 13:51:12;;;;;;;36.95;33.90;;;;;;;;;;5057682;28;20423;-79
2023/09/17 13:53:38;;;;;;;36.95;33.88;;;;;;;;;;5056599;28;20066;-79
2023/09/17 13:56:04;;;;;;;36.35;33.10;;;;;;;;;;5073405;28;20048;-79
2023/09/17 13:58:30;;;;;;;35.28;32.47;;;;;;;;;;5073434;28;20048;-78
2023/09/17 14:00:57;;;;;;;36.45;33.38;;;;;;;;;;5055751;28;20071;-79
2023/09/17 14:03:23;;;;;;;35.03;32.17;;;;;;;;;;5073292;28;20041;-79
2023/09/17 14:05:49;;;;;;;35.33;32.17;;;;;;;;;;5056332;28;20072;-79
2023/09/17 14:08:15;;;;;;;34.17;31.40;;;;;;;;;;5055664;28;20083;-79
2023/09/17 14:10:42;;;;;;;31.75;29.08;;;;;;;;;;5056490;28;20044;-79
2023/09/17 14:13:08;;;;;;;32.90;30.10;;;;;;;;;;5059021;28;20186;-81
2023/09/17 14:15:35;;;;;;;34.75;31.63;;;;;;;;;;5077076;28;20048;-80
2023/09/17 14:18:02;;;;;;;32.55;29.85;;;;;;;;;;5026236;28;20058;-79